createdAt,value
2019-06-01T00:01:38.324Z,101619.63
2019-06-01T00:04:09.810Z,101626.61
2019-06-01T00:06:40.796Z,101616.85
2019-06-01T00:09:12.560Z,101618.30
2019-06-01T00:11:43.381Z,101612.92
2019-06-01T00:14:14.407Z,101617.27
2019-06-01T00:16:46.032Z,101622.80
2019-06-01T00:19:16.955Z,101621.27
2019-06-01T00:21:47.979Z,101621.19
2019-06-01T00:24:18.899Z,101622.61
2019-06-01T00:26:51.993Z,101616.19
2019-06-01T00:29:22.819Z,101619.59
2019-06-01T00:31:53.579Z,101618.80
2019-06-01T00:34:24.263Z,101617.05
2019-06-01T00:36:55.349Z,101611.59
2019-06-01T00:39:26.146Z,101613.23
2019-06-01T00:41:57.034Z,101621.04
2019-06-01T00:44:27.691Z,101621.98
2019-06-01T00:46:59.147Z,101622.91
2019-06-01T00:49:29.710Z,101622.77
2019-06-01T00:52:00.578Z,101629.71
2019-06-01T00:54:31.532Z,101603.03
2019-06-01T00:57:02.382Z,101622.53
2019-06-01T00:59:33.387Z,101628.55
2019-06-01T01:02:04.775Z,101624.52
2019-06-01T01:04:35.626Z,101625.23
2019-06-01T01:07:06.553Z,101624.03
2019-06-01T01:09:37.661Z,101624.33
2019-06-01T01:12:08.538Z,101623.32
2019-06-01T01:14:39.283Z,101620.86
2019-06-01T01:17:10.075Z,101626.87
2019-06-01T01:19:40.811Z,101605.69
2019-06-01T01:22:11.618Z,101599.94
2019-06-01T01:24:42.594Z,101624.92
2019-06-01T01:27:13.287Z,101622.19
2019-06-01T01:29:44.113Z,101603.94
2019-06-01T01:32:14.938Z,101603.94
2019-06-01T01:34:45.672Z,101615.92
2019-06-01T01:37:16.325Z,101618.78
2019-06-01T01:39:48.034Z,101615.55
2019-06-01T01:42:18.802Z,101622.73
2019-06-01T01:44:50.502Z,101619.62
2019-06-01T01:47:21.663Z,101625.16
2019-06-01T01:49:52.323Z,101624.90
2019-06-01T01:52:23.010Z,101590.25
2019-06-01T01:54:54.733Z,101631.09
2019-06-01T01:57:25.584Z,101628.16
2019-06-01T01:59:57.398Z,101623.80
2019-06-01T02:02:30.325Z,101623.80
2019-06-01T02:05:02.179Z,101618.94
2019-06-01T02:07:35.786Z,101625.19
2019-06-01T02:10:08.889Z,101615.12
2019-06-01T02:12:39.686Z,101618.59
2019-06-01T02:15:10.502Z,101619.87
2019-06-01T02:17:41.290Z,101616.45
2019-06-01T02:20:12.492Z,101606.73
2019-06-01T02:22:43.092Z,101608.56
2019-06-01T02:25:13.975Z,101605.16
2019-06-01T02:27:44.840Z,101610.22
2019-06-01T02:30:17.199Z,101591.75
2019-06-01T02:32:47.899Z,101591.75
2019-06-01T02:35:18.532Z,101580.77
2019-06-01T02:37:49.257Z,101604.62
2019-06-01T02:40:20.527Z,101612.30
2019-06-01T02:42:51.230Z,101609.37
2019-06-01T02:45:22.624Z,101611.27
2019-06-01T02:47:57.437Z,101607.72
2019-06-01T02:50:28.633Z,101609.30
2019-06-01T02:52:59.689Z,101587.45
2019-06-01T02:55:30.377Z,101597.88
2019-06-01T02:58:02.388Z,101603.80
2019-06-01T03:00:48.217Z,101603.92
2019-06-01T03:03:19.959Z,101596.48
2019-06-01T03:05:53.644Z,101596.48
2019-06-01T03:08:26.788Z,101598.44
2019-06-01T03:10:59.692Z,101597.06
2019-06-01T03:13:33.579Z,101602.22
2019-06-01T03:16:08.918Z,101605.68
2019-06-01T03:18:43.054Z,101602.09
2019-06-01T03:21:16.777Z,101596.97
2019-06-01T03:23:50.000Z,101602.22
2019-06-01T03:26:23.688Z,101600.94
2019-06-01T03:28:54.654Z,101602.20
2019-06-01T03:31:25.326Z,101601.52
2019-06-01T03:33:56.416Z,101605.40
2019-06-01T03:36:27.211Z,101607.05
2019-06-01T03:38:59.988Z,101608.41
2019-06-01T03:41:32.133Z,101615.03
2019-06-01T03:44:04.407Z,101611.77
2019-06-01T03:46:35.289Z,101611.58
2019-06-01T03:49:06.197Z,101605.20
2019-06-01T03:51:37.503Z,101607.81
2019-06-01T03:54:09.966Z,101604.62
2019-06-01T03:56:41.310Z,101609.30
2019-06-01T03:59:12.324Z,101614.39
2019-06-01T04:01:47.060Z,101610.91
2019-06-01T04:04:17.560Z,101616.70
2019-06-01T04:06:49.147Z,101629.23
2019-06-01T04:09:20.160Z,101622.33
2019-06-01T04:11:50.976Z,101624.81
2019-06-01T04:14:23.501Z,101628.66
2019-06-01T04:16:54.921Z,101628.47
2019-06-01T04:19:26.893Z,101624.62
2019-06-01T04:21:57.796Z,101617.70
2019-06-01T04:24:28.517Z,101616.05
2019-06-01T04:26:59.338Z,101617.98
2019-06-01T04:29:30.139Z,101627.88
2019-06-01T04:32:02.402Z,101632.11
2019-06-01T04:34:35.713Z,101638.56
2019-06-01T04:37:07.049Z,101637.09
2019-06-01T04:39:38.225Z,101633.42
2019-06-01T04:42:09.778Z,101639.63
2019-06-01T04:44:40.814Z,101640.92
2019-06-01T04:47:12.569Z,101638.00
2019-06-01T04:49:43.440Z,101642.64
2019-06-01T04:52:15.224Z,101646.77
2019-06-01T04:54:46.326Z,101644.73
2019-06-01T04:57:17.278Z,101641.37
2019-06-01T04:59:48.533Z,101641.13
2019-06-01T05:02:19.600Z,101644.59
2019-06-01T05:04:50.641Z,101645.91
2019-06-01T05:07:21.433Z,101648.48
2019-06-01T05:09:52.216Z,101642.11
2019-06-01T05:12:23.148Z,101645.08
2019-06-01T05:14:53.786Z,101645.41
2019-06-01T05:17:24.566Z,101644.58
2019-06-01T05:19:57.212Z,101647.04
2019-06-01T05:22:28.231Z,101643.20
2019-06-01T05:24:59.320Z,101643.89
2019-06-01T05:27:30.200Z,101645.86
2019-06-01T05:30:00.947Z,101647.09
2019-06-01T05:32:32.084Z,101645.77
2019-06-01T05:35:02.892Z,101648.88
2019-06-01T05:37:34.087Z,101645.69
2019-06-01T05:40:10.481Z,101650.33
2019-06-01T05:42:42.161Z,101644.25
2019-06-01T05:45:13.583Z,101648.58
2019-06-01T05:47:44.337Z,101652.53
2019-06-01T05:50:18.865Z,101652.67
2019-06-01T05:52:49.795Z,101649.83
2019-06-01T05:55:20.882Z,101650.06
2019-06-01T05:57:51.881Z,101654.48
2019-06-01T06:00:31.747Z,101655.56
2019-06-01T06:03:03.500Z,101651.77
2019-06-01T06:05:35.195Z,101645.91
2019-06-01T06:08:06.822Z,101635.08
2019-06-01T06:10:37.524Z,101639.73
2019-06-01T06:13:08.265Z,101644.88
2019-06-01T06:15:39.023Z,101634.05
2019-06-01T06:18:10.131Z,101639.91
2019-06-01T06:20:40.859Z,101630.19
2019-06-01T06:23:12.215Z,101639.20
2019-06-01T06:25:43.134Z,101636.58
2019-06-01T06:28:14.607Z,101641.95
2019-06-01T06:30:45.502Z,101642.14
2019-06-01T06:33:17.356Z,101643.52
2019-06-01T06:35:48.958Z,101645.39
2019-06-01T06:38:20.020Z,101647.34
2019-06-01T06:40:53.207Z,101645.98
2019-06-01T06:43:32.431Z,101640.52
2019-06-01T06:45:56.457Z,101645.75
2019-06-01T06:48:27.208Z,101653.48
2019-06-01T06:50:58.373Z,101647.95
2019-06-01T06:53:34.984Z,101646.69
2019-06-01T06:56:01.859Z,101645.81
2019-06-01T06:58:32.621Z,101648.41
2019-06-01T07:01:05.147Z,101652.97
2019-06-01T07:03:36.198Z,101645.36
2019-06-01T07:06:07.983Z,101648.46
2019-06-01T07:08:38.931Z,101652.55
2019-06-01T07:11:11.869Z,101637.77
2019-06-01T07:13:42.738Z,101642.35
2019-06-01T07:16:15.879Z,101640.05
2019-06-01T07:18:46.453Z,101638.52
2019-06-01T07:21:24.072Z,101629.54
2019-06-01T07:23:55.543Z,101632.58
2019-06-01T07:26:26.368Z,101632.81
2019-06-01T07:28:58.730Z,101630.58
2019-06-01T07:31:29.959Z,101627.28
2019-06-01T07:34:02.208Z,101629.80
2019-06-01T07:36:37.622Z,101627.73
2019-06-01T07:39:08.784Z,101630.33
2019-06-01T07:41:41.786Z,101632.48
2019-06-01T07:44:12.894Z,101622.28
2019-06-01T07:46:44.317Z,101617.57
2019-06-01T07:49:15.232Z,101612.31
2019-06-01T07:51:46.780Z,101623.10
2019-06-01T07:54:18.279Z,101614.34
2019-06-01T07:56:49.431Z,101619.83
2019-06-01T07:59:21.326Z,101610.88
2019-06-01T08:01:53.473Z,101612.41
2019-06-01T08:04:26.672Z,101611.13
2019-06-01T08:06:57.394Z,101607.52
2019-06-01T08:09:29.589Z,101618.61
2019-06-01T08:12:00.949Z,101615.17
2019-06-01T08:14:32.875Z,101610.89
2019-06-01T08:17:03.869Z,101610.38
2019-06-01T08:19:53.194Z,101614.54
2019-06-01T08:22:24.138Z,101608.03
2019-06-01T08:24:54.947Z,101614.72
2019-06-01T08:27:26.498Z,101609.39
2019-06-01T08:29:57.418Z,101610.31
2019-06-01T08:32:28.727Z,101603.92
2019-06-01T08:35:08.676Z,101610.13
2019-06-01T08:37:33.625Z,101604.34
2019-06-01T08:40:07.687Z,101610.84
2019-06-01T08:42:39.144Z,101604.14
2019-06-01T08:45:10.662Z,101602.95
2019-06-01T08:47:41.545Z,101602.95
2019-06-01T08:50:12.892Z,101601.59
2019-06-01T08:52:43.662Z,101606.58
2019-06-01T08:55:15.278Z,101600.70
2019-06-01T08:57:46.302Z,101597.76
2019-06-01T09:00:17.825Z,101593.84
2019-06-01T09:02:49.393Z,101593.55
2019-06-01T09:05:24.277Z,101584.12
2019-06-01T09:07:54.144Z,101586.86
2019-06-01T09:10:25.296Z,101576.37
2019-06-01T09:12:58.004Z,101579.61
2019-06-01T09:15:29.738Z,101579.09
2019-06-01T09:18:00.794Z,101576.72
2019-06-01T09:20:35.869Z,101573.64
2019-06-01T09:23:05.443Z,101570.94
2019-06-01T09:25:36.219Z,101572.75
2019-06-01T09:28:07.495Z,101568.98
2019-06-01T09:30:38.814Z,101567.25
2019-06-01T09:33:10.098Z,101571.02
2019-06-01T09:35:54.356Z,101569.31
2019-06-01T09:38:15.408Z,101571.88
2019-06-01T09:40:46.574Z,101571.92
2019-06-01T09:43:17.487Z,101573.20
2019-06-01T09:45:52.771Z,101563.98
2019-06-01T09:48:22.049Z,101566.67
2019-06-01T09:50:53.144Z,101559.02
2019-06-01T09:53:24.353Z,101562.32
2019-06-01T09:55:55.415Z,101562.70
2019-06-01T09:58:28.233Z,101551.19
2019-06-01T10:00:59.376Z,101552.20
2019-06-01T10:03:32.302Z,101557.50
2019-06-01T10:06:04.420Z,101559.97
2019-06-01T10:08:36.120Z,101557.81
2019-06-01T10:11:07.481Z,101556.30
2019-06-01T10:13:38.811Z,101560.78
2019-06-01T10:16:10.353Z,101565.95
2019-06-01T10:18:43.016Z,101557.09
2019-06-01T10:21:14.111Z,101554.59
2019-06-01T10:23:49.020Z,101548.46
2019-06-01T10:26:18.088Z,101550.09
2019-06-01T10:28:51.076Z,101550.11
2019-06-01T10:31:22.275Z,101544.55
2019-06-01T10:33:53.406Z,101539.44
2019-06-01T10:36:24.662Z,101543.27
2019-06-01T10:38:56.636Z,101539.06
2019-06-01T10:41:27.935Z,101542.08
2019-06-01T10:43:58.819Z,101536.42
2019-06-01T10:46:29.836Z,101532.13
2019-06-01T10:49:00.680Z,101534.72
2019-06-01T10:51:32.096Z,101532.46
2019-06-01T10:54:03.174Z,101531.62
2019-06-01T10:56:34.371Z,101531.45
2019-06-01T10:59:06.113Z,101531.78
2019-06-01T11:01:37.854Z,101524.90
2019-06-01T11:04:09.413Z,101521.84
2019-06-01T11:06:44.914Z,101522.17
2019-06-01T11:09:14.076Z,101521.16
2019-06-01T11:11:44.877Z,101525.22
2019-06-01T11:14:17.236Z,101514.22
2019-06-01T11:16:55.767Z,101509.53
2019-06-01T11:19:21.380Z,101506.91
2019-06-01T11:21:52.585Z,101507.16
2019-06-01T11:24:25.570Z,101503.52
2019-06-01T11:26:56.761Z,101500.18
2019-06-01T11:29:28.127Z,101491.77
2019-06-01T11:31:58.946Z,101491.87
2019-06-01T11:34:29.962Z,101482.72
2019-06-01T11:37:05.402Z,101478.80
2019-06-01T11:39:34.265Z,101475.27
2019-06-01T11:42:05.433Z,101468.30
2019-06-01T11:44:36.631Z,101463.16
2019-06-01T11:47:07.237Z,101458.54
2019-06-01T11:49:38.672Z,101452.55
2019-06-01T11:52:09.694Z,101447.37
2019-06-01T11:54:41.211Z,101450.58
2019-06-01T11:57:12.537Z,101448.68
2019-06-01T11:59:43.648Z,101452.17
2019-06-01T12:02:14.448Z,101449.26
2019-06-01T12:04:46.374Z,101445.55
2019-06-01T12:07:18.747Z,101446.70
2019-06-01T12:09:50.707Z,101442.29
2019-06-01T12:12:21.735Z,101442.33
2019-06-01T12:14:53.781Z,101441.83
2019-06-01T12:17:24.890Z,101440.13
2019-06-01T12:19:55.768Z,101438.08
2019-06-01T12:22:26.916Z,101433.77
2019-06-01T12:24:57.632Z,101425.23
2019-06-01T12:27:29.926Z,101423.84
2019-06-01T12:30:00.495Z,101424.50
2019-06-01T12:32:32.935Z,101405.44
2019-06-01T12:35:05.562Z,101403.89
2019-06-01T12:37:56.074Z,101400.14
2019-06-01T12:40:10.615Z,101409.59
2019-06-01T12:42:41.642Z,101412.08
2019-06-01T12:45:23.064Z,101411.30
2019-06-01T12:47:57.715Z,101401.55
2019-06-01T12:50:25.508Z,101400.16
2019-06-01T12:52:57.225Z,101396.42
2019-06-01T12:55:29.176Z,101387.00
2019-06-01T12:57:59.906Z,101386.87
2019-06-01T13:00:30.637Z,101379.44
2019-06-01T13:03:07.546Z,101388.83
2019-06-01T13:05:34.251Z,101380.02
2019-06-01T13:08:05.625Z,101377.91
2019-06-01T13:10:37.876Z,101373.58
2019-06-01T13:13:08.832Z,101367.67
2019-06-01T13:15:41.131Z,101359.79
2019-06-01T13:18:13.432Z,101357.45
2019-06-01T13:20:45.433Z,101358.67
2019-06-01T13:23:16.265Z,101356.70
2019-06-01T13:25:47.665Z,101350.88
2019-06-01T13:28:18.745Z,101351.08
2019-06-01T13:30:50.983Z,101343.34
2019-06-01T13:33:22.386Z,101347.56
2019-06-01T13:35:53.266Z,101349.73
2019-06-01T13:38:24.753Z,101342.88
2019-06-01T13:40:55.631Z,101343.55
2019-06-01T13:43:26.555Z,101347.72
2019-06-01T13:45:57.929Z,101334.60
2019-06-01T13:48:29.114Z,101335.60
2019-06-01T13:51:00.004Z,101330.84
2019-06-01T13:53:31.093Z,101326.67
2019-06-01T13:56:02.172Z,101324.95
2019-06-01T13:58:33.613Z,101317.27
2019-06-01T14:01:04.986Z,101329.01
2019-06-01T14:03:36.649Z,101326.67
2019-06-01T14:06:08.214Z,101320.68
2019-06-01T14:08:39.996Z,101321.14
2019-06-01T14:11:11.907Z,101311.45
2019-06-01T14:13:43.736Z,101319.61
2019-06-01T14:16:15.395Z,101316.55
2019-06-01T14:18:47.647Z,101309.73
2019-06-01T14:21:19.376Z,101306.28
2019-06-01T14:23:51.959Z,101303.86
2019-06-01T14:26:22.987Z,101301.18
2019-06-01T14:28:54.176Z,101301.89
2019-06-01T14:31:25.446Z,101288.85
2019-06-01T14:33:56.844Z,101290.52
2019-06-01T14:36:28.154Z,101291.13
2019-06-01T14:38:59.398Z,101292.42
2019-06-01T14:41:30.356Z,101281.98
2019-06-01T14:44:04.735Z,101284.02
2019-06-01T14:46:52.422Z,101275.45
2019-06-01T14:49:08.924Z,101271.78
2019-06-01T14:51:40.924Z,101261.33
2019-06-01T14:54:11.772Z,101262.98
2019-06-01T14:56:43.351Z,101254.91
2019-06-01T14:59:14.399Z,101258.36
2019-06-01T15:01:45.683Z,101250.11
2019-06-01T15:04:18.386Z,101246.48
2019-06-01T15:06:50.212Z,101251.53
2019-06-01T15:09:22.490Z,101243.09
2019-06-01T15:11:54.533Z,101242.81
2019-06-01T15:14:25.234Z,101239.80
2019-06-01T15:16:56.248Z,101241.88
2019-06-01T15:19:27.114Z,101240.34
2019-06-01T15:21:58.349Z,101237.29
2019-06-01T15:24:30.506Z,101235.25
2019-06-01T15:27:01.322Z,101230.68
2019-06-01T15:29:32.369Z,101227.92
2019-06-01T15:32:03.882Z,101220.03
2019-06-01T15:34:35.307Z,101224.03
2019-06-01T15:37:07.215Z,101222.87
2019-06-01T15:39:37.952Z,101218.02
2019-06-01T15:42:09.050Z,101220.27
2019-06-01T15:44:40.194Z,101217.83
2019-06-01T15:47:11.513Z,101214.00
2019-06-01T15:49:42.835Z,101216.11
2019-06-01T15:52:13.732Z,101210.99
2019-06-01T15:54:45.240Z,101201.91
2019-06-01T15:57:16.685Z,101197.17
2019-06-01T15:59:48.854Z,101206.94
2019-06-01T16:02:23.038Z,101200.73
2019-06-01T16:05:01.291Z,101196.95
2019-06-01T16:07:34.944Z,101203.29
2019-06-01T16:10:12.178Z,101197.88
2019-06-01T16:15:42.104Z,101203.50
2019-06-01T16:18:13.309Z,101193.72
2019-06-01T16:20:44.813Z,101194.05
2019-06-01T16:23:15.802Z,101185.95
2019-06-01T16:25:57.407Z,101181.91
2019-06-01T16:28:19.956Z,101182.58
2019-06-01T16:30:51.149Z,101181.59
2019-06-01T16:33:22.518Z,101180.24
2019-06-01T16:35:54.914Z,101174.31
2019-06-01T16:38:26.594Z,101179.52
2019-06-01T16:40:57.575Z,101178.02
2019-06-01T16:43:29.211Z,101172.39
2019-06-01T16:46:02.113Z,101168.36
2019-06-01T16:48:33.088Z,101168.52
2019-06-01T16:51:05.902Z,101165.82
2019-06-01T16:53:37.610Z,101166.41
2019-06-01T16:56:09.056Z,101173.66
2019-06-01T16:58:39.910Z,101171.52
2019-06-01T17:01:11.823Z,101173.75
2019-06-01T17:03:42.902Z,101172.15
2019-06-01T17:06:15.381Z,101179.40
2019-06-01T17:08:47.624Z,101173.39
2019-06-01T17:11:21.070Z,101171.88
2019-06-01T17:13:53.017Z,101168.45
2019-06-01T17:16:24.152Z,101171.64
2019-06-01T17:18:55.377Z,101166.22
2019-06-01T17:21:26.782Z,101166.03
2019-06-01T17:23:57.763Z,101164.89
2019-06-01T17:26:29.110Z,101158.83
2019-06-01T17:29:02.010Z,101157.96
2019-06-01T17:31:35.398Z,101162.46
2019-06-01T17:34:08.632Z,101153.31
2019-06-01T17:36:41.390Z,101152.34
2019-06-01T17:39:12.835Z,101149.95
2019-06-01T17:41:45.586Z,101154.95
2019-06-01T17:44:18.638Z,101151.73
2019-06-01T17:46:53.938Z,101152.06
2019-06-01T17:49:23.968Z,101145.56
2019-06-01T17:51:54.974Z,101152.14
2019-06-01T17:54:27.250Z,101139.93
2019-06-01T17:56:59.070Z,101150.31
2019-06-01T17:59:30.530Z,101145.37
2019-06-01T18:02:01.900Z,101145.71
2019-06-01T18:04:34.901Z,101147.72
2019-06-01T18:07:08.028Z,101143.56
2019-06-01T18:09:39.316Z,101142.20
2019-06-01T18:12:10.695Z,101148.31
2019-06-01T18:14:42.641Z,101136.56
2019-06-01T18:17:13.711Z,101141.87
2019-06-01T18:19:46.158Z,101140.44
2019-06-01T18:22:17.302Z,101143.56
2019-06-01T18:24:48.221Z,101145.13
2019-06-01T18:27:19.655Z,101146.72
2019-06-01T18:29:50.520Z,101145.34
2019-06-01T18:32:22.572Z,101147.33
2019-06-01T18:34:53.777Z,101145.98
2019-06-01T18:37:25.873Z,101150.31
2019-06-01T18:39:57.017Z,101145.45
2019-06-01T18:42:30.023Z,101146.59
2019-06-01T18:45:03.476Z,101155.33
2019-06-01T18:47:34.599Z,101154.02
2019-06-01T18:50:10.010Z,101147.69
2019-06-01T18:52:42.223Z,101163.02
2019-06-01T18:55:14.799Z,101162.26
2019-06-01T18:57:48.625Z,101159.25
2019-06-01T19:00:19.797Z,101165.01
2019-06-01T19:02:51.672Z,101165.28
2019-06-01T19:05:22.661Z,101166.62
2019-06-01T19:07:53.541Z,101171.96
2019-06-01T19:10:24.680Z,101176.75
2019-06-01T19:12:55.942Z,101172.11
2019-06-01T19:15:28.919Z,101171.95
2019-06-01T19:17:59.877Z,101179.41
2019-06-01T19:20:33.160Z,101180.95
2019-06-01T19:23:06.520Z,101182.71
2019-06-01T19:25:37.371Z,101183.55
2019-06-01T19:28:08.858Z,101186.64
2019-06-01T19:30:42.136Z,101188.13
2019-06-01T19:33:15.507Z,101189.77
2019-06-01T19:35:45.813Z,101190.73
2019-06-01T19:38:19.541Z,101191.83
2019-06-01T19:40:50.975Z,101197.05
2019-06-01T19:43:22.307Z,101200.50
2019-06-01T19:45:53.410Z,101197.07
2019-06-01T19:48:24.592Z,101201.56
2019-06-01T19:50:55.682Z,101201.20
2019-06-01T19:53:26.795Z,101201.51
2019-06-01T19:55:58.502Z,101198.06
2019-06-01T19:58:29.686Z,101210.06
2019-06-01T20:01:00.726Z,101208.59
2019-06-01T20:03:31.827Z,101209.46
2019-06-01T20:06:02.479Z,101206.52
2019-06-01T20:08:33.326Z,101213.05
2019-06-01T20:11:04.534Z,101210.45
2019-06-01T20:13:37.464Z,101211.02
2019-06-01T20:16:10.746Z,101214.53
2019-06-01T20:18:42.394Z,101214.95
2019-06-01T20:21:16.018Z,101219.25
2019-06-01T20:23:47.307Z,101220.03
2019-06-01T20:26:19.395Z,101217.59
2019-06-01T20:28:51.040Z,101216.35
2019-06-01T20:31:22.339Z,101217.16
2019-06-01T20:33:56.472Z,101219.87
2019-06-01T20:36:27.367Z,101215.58
2019-06-01T20:39:04.073Z,101217.88
2019-06-01T20:41:32.994Z,101227.38
2019-06-01T20:44:06.035Z,101220.83
2019-06-01T20:46:37.564Z,101214.17
2019-06-01T20:49:08.729Z,101214.56
2019-06-01T20:51:39.878Z,101215.28
2019-06-01T20:54:11.273Z,101215.85
2019-06-01T20:56:42.406Z,101215.09
2019-06-01T20:59:17.221Z,101215.55
2019-06-01T21:01:47.503Z,101220.11
2019-06-01T21:04:22.292Z,101217.88
2019-06-01T21:06:53.707Z,101221.19
2019-06-01T21:09:24.566Z,101217.02
2019-06-01T21:11:55.591Z,101220.11
2019-06-01T21:14:26.552Z,101224.28
2019-06-01T21:16:58.267Z,101224.78
2019-06-01T21:19:29.734Z,101223.28
2019-06-01T21:22:00.662Z,101234.22
2019-06-01T21:24:33.128Z,101228.77
2019-06-01T21:27:06.055Z,101231.27
2019-06-01T21:29:37.226Z,101231.19
2019-06-01T21:32:09.106Z,101229.41
2019-06-01T21:34:40.060Z,101234.17
2019-06-01T21:37:11.563Z,101226.06
2019-06-01T21:39:44.351Z,101228.88
2019-06-01T21:42:15.528Z,101233.72
2019-06-01T21:44:46.817Z,101230.88
2019-06-01T21:47:17.970Z,101235.62
2019-06-01T21:49:49.025Z,101230.12
2019-06-01T21:52:20.054Z,101228.17
2019-06-01T21:54:50.782Z,101227.91
2019-06-01T21:57:22.381Z,101225.40
2019-06-01T21:59:53.738Z,101229.95
2019-06-01T22:02:25.106Z,101236.05
2019-06-01T22:04:57.097Z,101237.14
2019-06-01T22:07:28.139Z,101238.98
2019-06-01T22:10:01.817Z,101230.73
2019-06-01T22:12:32.793Z,101239.30
2019-06-01T22:15:04.260Z,101238.02
2019-06-01T22:17:37.057Z,101241.16
2019-06-01T22:20:08.252Z,101236.45
2019-06-01T22:22:39.235Z,101239.62
2019-06-01T22:25:10.947Z,101237.91
2019-06-01T22:27:41.825Z,101232.03
2019-06-01T22:30:13.714Z,101235.25
2019-06-01T22:32:45.283Z,101237.23
2019-06-01T22:35:16.669Z,101234.66
2019-06-01T22:37:48.806Z,101232.69
2019-06-01T22:40:20.855Z,101233.11
2019-06-01T22:42:51.722Z,101235.80
2019-06-01T22:45:22.594Z,101229.97
2019-06-01T22:47:53.679Z,101228.95
2019-06-01T22:50:24.837Z,101229.39
2019-06-01T22:52:56.153Z,101226.08
2019-06-01T22:55:28.344Z,101236.64
2019-06-01T22:57:59.662Z,101228.23
2019-06-01T23:00:31.990Z,101231.69
2019-06-01T23:03:02.912Z,101225.27
2019-06-01T23:05:33.931Z,101226.17
2019-06-01T23:08:05.479Z,101229.81
2019-06-01T23:10:36.624Z,101232.05
2019-06-01T23:13:07.745Z,101230.95
2019-06-01T23:15:38.956Z,101229.83
2019-06-01T23:18:12.886Z,101220.53
2019-06-01T23:20:43.673Z,101234.91
2019-06-01T23:23:14.692Z,101230.33
2019-06-01T23:25:45.769Z,101224.57
2019-06-01T23:28:16.947Z,101229.87
2019-06-01T23:30:47.849Z,101225.88
2019-06-01T23:33:18.681Z,101221.06
2019-06-01T23:35:49.515Z,101218.73
2019-06-01T23:38:20.437Z,101219.45
2019-06-01T23:40:51.886Z,101216.53
2019-06-01T23:43:22.814Z,101223.23
2019-06-01T23:45:53.977Z,101219.67
2019-06-01T23:48:25.153Z,101221.02
2019-06-01T23:50:57.255Z,101217.16
2019-06-01T23:53:29.492Z,101215.91
2019-06-01T23:56:00.403Z,101218.64
2019-06-01T23:58:32.516Z,101218.37
